createdAt,value
2023-01-13T00:00:00.119Z, 0
2023-01-13T00:02:01.143Z, 0
2023-01-13T00:04:00.146Z, 0
2023-01-13T00:06:00.137Z, 0
2023-01-13T00:08:00.158Z, 0
2023-01-13T00:10:00.080Z, 0
2023-01-13T00:12:00.073Z, 0
2023-01-13T00:14:00.128Z, 0
2023-01-13T00:16:00.137Z, 0
2023-01-13T00:18:00.087Z, 0
2023-01-13T00:20:00.120Z, 0
2023-01-13T00:22:00.080Z, 0
2023-01-13T00:24:00.153Z, 0
2023-01-13T00:26:00.083Z, 0
2023-01-13T00:28:00.107Z, 0
2023-01-13T00:30:00.170Z, 0
2023-01-13T00:32:00.136Z, 0
2023-01-13T00:34:00.097Z, 0
2023-01-13T00:36:00.086Z, 0
2023-01-13T00:38:00.085Z, 0
2023-01-13T00:40:00.087Z, 0
2023-01-13T00:42:00.071Z, 0
2023-01-13T00:44:00.101Z, 0
2023-01-13T00:46:00.205Z, 0
2023-01-13T00:48:00.095Z, 0
2023-01-13T00:50:00.199Z, 0
2023-01-13T00:52:00.115Z, 0
2023-01-13T00:54:00.378Z, 0
2023-01-13T00:56:00.085Z, 0
2023-01-13T00:58:00.097Z, 0
2023-01-13T01:00:00.421Z, 0
2023-01-13T01:02:00.219Z, 0
2023-01-13T01:04:00.067Z, 0
2023-01-13T01:06:00.068Z, 0
2023-01-13T01:08:00.061Z, 0
2023-01-13T01:10:00.101Z, 0
2023-01-13T01:12:00.069Z, 0
2023-01-13T01:14:00.123Z, 0
2023-01-13T01:16:00.149Z, 0
2023-01-13T01:18:00.075Z, 0
2023-01-13T01:20:00.108Z, 0
2023-01-13T01:22:00.101Z, 0
2023-01-13T01:24:00.119Z, 0
2023-01-13T01:26:00.133Z, 0
2023-01-13T01:28:00.132Z, 0
2023-01-13T01:30:00.113Z, 0
2023-01-13T01:32:00.090Z, 0
2023-01-13T01:34:00.102Z, 0
2023-01-13T01:36:00.091Z, 0
2023-01-13T01:38:00.123Z, 0
2023-01-13T01:40:00.104Z, 0
2023-01-13T01:42:00.068Z, 0
2023-01-13T01:44:00.389Z, 0
2023-01-13T01:46:00.106Z, 0
2023-01-13T01:48:00.433Z, 0
2023-01-13T01:50:00.404Z, 0
2023-01-13T01:52:00.068Z, 0
2023-01-13T01:54:00.062Z, 0
2023-01-13T01:56:00.112Z, 0
2023-01-13T01:58:00.071Z, 0
2023-01-13T02:00:00.111Z, 0
2023-01-13T02:02:00.369Z, 0
2023-01-13T02:04:00.085Z, 0
2023-01-13T02:06:00.077Z, 0
2023-01-13T02:08:00.079Z, 0
2023-01-13T02:10:00.089Z, 0
2023-01-13T02:12:00.069Z, 0
2023-01-13T02:14:00.090Z, 0
2023-01-13T02:16:00.210Z, 0
2023-01-13T02:18:00.080Z, 0
2023-01-13T02:20:00.081Z, 0
2023-01-13T02:22:00.135Z, 0
2023-01-13T02:24:00.091Z, 0
2023-01-13T02:26:00.102Z, 0
2023-01-13T02:28:00.144Z, 0
2023-01-13T02:30:00.096Z, 0
2023-01-13T02:32:00.115Z, 0
2023-01-13T02:34:00.070Z, 0
2023-01-13T02:36:00.105Z, 0
2023-01-13T02:38:00.093Z, 0
2023-01-13T02:40:00.168Z, 0
2023-01-13T02:42:00.081Z, 0
2023-01-13T02:44:00.072Z, 0
2023-01-13T02:46:00.132Z, 0
2023-01-13T02:48:00.079Z, 0
2023-01-13T02:50:00.123Z, 0
2023-01-13T02:52:00.120Z, 0
2023-01-13T02:54:00.115Z, 0
2023-01-13T02:56:00.087Z, 0
2023-01-13T02:58:00.072Z, 0
2023-01-13T03:00:00.100Z, 0
2023-01-13T03:02:00.225Z, 0
2023-01-13T03:04:00.106Z, 0
2023-01-13T03:06:00.073Z, 0
2023-01-13T03:08:00.132Z, 0
2023-01-13T03:10:00.138Z, 0
2023-01-13T03:12:00.074Z, 0
2023-01-13T03:14:00.121Z, 0
2023-01-13T03:16:00.102Z, 0
2023-01-13T03:18:00.142Z, 0
2023-01-13T03:20:00.100Z, 0
2023-01-13T03:22:00.124Z, 0
2023-01-13T03:24:00.089Z, 0
2023-01-13T03:26:00.108Z, 0
2023-01-13T03:28:00.307Z, 0
2023-01-13T03:30:00.126Z, 0
2023-01-13T03:32:00.087Z, 0
2023-01-13T03:34:00.081Z, 0
2023-01-13T03:36:00.114Z, 0
2023-01-13T03:38:00.110Z, 0
2023-01-13T03:40:00.307Z, 0
2023-01-13T03:42:00.427Z, 0
2023-01-13T03:44:00.088Z, 0
2023-01-13T03:46:00.233Z, 0
2023-01-13T03:48:00.105Z, 0
2023-01-13T03:50:00.107Z, 0
2023-01-13T03:52:00.083Z, 0
2023-01-13T03:54:00.104Z, 0
2023-01-13T03:56:00.103Z, 0
2023-01-13T03:58:00.151Z, 0
2023-01-13T04:00:00.099Z, 0
2023-01-13T04:02:00.208Z, 0
2023-01-13T04:04:00.204Z, 0
2023-01-13T04:06:00.089Z, 0
2023-01-13T04:08:00.091Z, 0
2023-01-13T04:10:01.109Z, 0
2023-01-13T04:12:00.100Z, 0
2023-01-13T04:14:00.079Z, 0
2023-01-13T04:16:00.261Z, 0
2023-01-13T04:18:00.111Z, 0
2023-01-13T04:20:00.106Z, 0
2023-01-13T04:22:00.114Z, 0
2023-01-13T04:24:00.120Z, 0
2023-01-13T04:26:00.069Z, 0
2023-01-13T04:28:00.195Z, 0
2023-01-13T04:30:00.290Z, 0
2023-01-13T04:32:00.374Z, 0
2023-01-13T04:34:00.112Z, 0
2023-01-13T04:36:00.175Z, 0
2023-01-13T04:38:00.098Z, 0
2023-01-13T04:40:00.091Z, 0
2023-01-13T04:42:00.110Z, 0
2023-01-13T04:44:00.070Z, 0
2023-01-13T04:46:00.181Z, 0
2023-01-13T04:48:00.086Z, 0
2023-01-13T04:50:00.145Z, 0
2023-01-13T04:52:00.087Z, 0
2023-01-13T04:54:00.079Z, 0
2023-01-13T04:56:00.075Z, 0
2023-01-13T04:58:00.112Z, 0
2023-01-13T05:00:00.085Z, 0
2023-01-13T05:02:00.170Z, 0
2023-01-13T05:04:00.084Z, 0
2023-01-13T05:06:00.089Z, 0
2023-01-13T05:08:00.072Z, 0
2023-01-13T05:10:00.077Z, 0
2023-01-13T05:12:00.096Z, 0
2023-01-13T05:14:00.080Z, 0
2023-01-13T05:16:00.303Z, 0
2023-01-13T05:18:00.103Z, 0
2023-01-13T05:20:00.140Z, 0
2023-01-13T05:22:00.092Z, 0
2023-01-13T05:24:00.107Z, 0
2023-01-13T05:26:00.073Z, 0
2023-01-13T05:28:00.159Z, 0
2023-01-13T05:30:00.126Z, 0
2023-01-13T05:32:00.070Z, 0
2023-01-13T05:34:00.091Z, 0
2023-01-13T05:36:00.093Z, 0
2023-01-13T05:38:00.095Z, 0
2023-01-13T05:40:00.122Z, 0
2023-01-13T05:42:00.088Z, 0
2023-01-13T05:44:00.080Z, 0
2023-01-13T05:46:00.282Z, 0
2023-01-13T05:48:00.157Z, 0
2023-01-13T05:50:00.098Z, 0
2023-01-13T05:52:00.075Z, 0
2023-01-13T05:54:00.106Z, 0
2023-01-13T05:56:00.095Z, 0
2023-01-13T05:58:00.098Z, 0
2023-01-13T06:00:00.117Z, 0
2023-01-13T06:02:00.076Z, 0
2023-01-13T06:04:00.163Z, 0
2023-01-13T06:06:00.102Z, 0
2023-01-13T06:08:00.080Z, 0
2023-01-13T06:10:00.163Z, 0
2023-01-13T06:12:00.227Z, 0
2023-01-13T06:14:00.272Z, 0
2023-01-13T06:16:00.381Z, 0
2023-01-13T06:18:00.279Z, 0
2023-01-13T06:20:00.512Z, 0
2023-01-13T06:22:00.250Z, 0
2023-01-13T06:24:00.393Z, 0
2023-01-13T06:26:00.077Z, 0
2023-01-13T06:28:00.120Z, 0
2023-01-13T06:30:00.105Z, 0
2023-01-13T06:32:00.118Z, 0
2023-01-13T06:34:00.122Z, 0
2023-01-13T06:36:00.090Z, 0
2023-01-13T06:38:00.074Z, 0
2023-01-13T06:40:00.103Z, 0
2023-01-13T06:42:00.070Z, 0
2023-01-13T06:44:00.078Z, 0
2023-01-13T06:46:00.077Z, 0
2023-01-13T06:48:00.106Z, 0
2023-01-13T06:50:00.086Z, 0
2023-01-13T06:52:00.107Z, 1
2023-01-13T06:54:00.108Z, 2
2023-01-13T06:56:00.119Z, 3
2023-01-13T06:58:00.101Z, 5
2023-01-13T07:00:00.092Z, 10
2023-01-13T07:02:00.185Z, 15
2023-01-13T07:04:00.098Z, 24
2023-01-13T07:06:00.109Z, 33
2023-01-13T07:08:00.078Z, 45
2023-01-13T07:10:00.095Z, 64
2023-01-13T07:12:00.074Z, 88
2023-01-13T07:14:00.112Z, 115
2023-01-13T07:16:00.150Z, 143
2023-01-13T07:18:00.102Z, 175
2023-01-13T07:20:00.185Z, 203
2023-01-13T07:22:00.078Z, 235
2023-01-13T07:24:00.205Z, 247
2023-01-13T07:26:00.113Z, 258
2023-01-13T07:28:00.089Z, 290
2023-01-13T07:30:00.104Z, 342
2023-01-13T07:32:00.160Z, 381
2023-01-13T07:34:00.097Z, 402
2023-01-13T07:36:00.107Z, 472
2023-01-13T07:38:00.074Z, 529
2023-01-13T07:40:00.088Z, 561
2023-01-13T07:42:00.079Z, 654
2023-01-13T07:44:00.118Z, 727
2023-01-13T07:46:00.166Z, 824
2023-01-13T07:48:00.091Z, 922
2023-01-13T07:50:00.104Z, 979
2023-01-13T07:52:00.075Z, 1090
2023-01-13T07:54:00.095Z, 1238
2023-01-13T07:56:00.096Z, 1467
2023-01-13T07:58:00.087Z, 1406
2023-01-13T08:00:00.104Z, 1608
2023-01-13T08:02:00.388Z, 1793
2023-01-13T08:04:00.092Z, 1556
2023-01-13T08:06:00.085Z, 1412
2023-01-13T08:08:00.092Z, 1300
2023-01-13T08:10:00.078Z, 1105
2023-01-13T08:12:00.128Z, 1625
2023-01-13T08:14:00.094Z, 1984
2023-01-13T08:16:00.074Z, 1816
2023-01-13T08:18:00.095Z, 1870
2023-01-13T08:20:00.106Z, 1976
2023-01-13T08:22:00.126Z, 2366
2023-01-13T08:24:00.122Z, 2508
2023-01-13T08:26:00.083Z, 2605
2023-01-13T08:28:00.091Z, 2592
2023-01-13T08:30:00.122Z, 2516
2023-01-13T08:32:00.079Z, 2866
2023-01-13T08:34:00.131Z, 3095
2023-01-13T08:36:00.070Z, 2799
2023-01-13T08:38:00.116Z, 2684
2023-01-13T08:40:00.110Z, 2645
2023-01-13T08:42:00.181Z, 2732
2023-01-13T08:44:00.104Z, 2970
2023-01-13T08:46:00.192Z, 2856
2023-01-13T08:48:00.164Z, 2910
2023-01-13T08:50:00.096Z, 3302
2023-01-13T08:52:00.077Z, 4140
2023-01-13T08:54:00.117Z, 3656
2023-01-13T08:56:00.081Z, 3443
2023-01-13T08:58:14.467Z, 3380
2023-01-13T09:00:00.123Z, 3325
2023-01-13T09:02:00.225Z, 3222
2023-01-13T09:04:00.192Z, 3299
2023-01-13T09:06:00.119Z, 3264
2023-01-13T09:08:00.129Z, 3416
2023-01-13T09:10:00.104Z, 3520
2023-01-13T09:12:00.084Z, 3919
2023-01-13T09:14:02.428Z, 3705
2023-01-13T09:16:00.203Z, 3770
2023-01-13T09:18:00.081Z, 4425
2023-01-13T09:20:00.106Z, 3989
2023-01-13T09:22:00.099Z, 3886
2023-01-13T09:24:00.083Z, 4883
2023-01-13T09:26:00.080Z, 4695
2023-01-13T09:28:00.132Z, 3845
2023-01-13T09:30:00.103Z, 3332
2023-01-13T09:32:00.108Z, 3835
2023-01-13T09:34:00.072Z, 4236
2023-01-13T09:36:00.080Z, 4009
2023-01-13T09:38:00.114Z, 3922
2023-01-13T09:40:00.164Z, 3795
2023-01-13T09:42:00.099Z, 3667
2023-01-13T09:44:00.076Z, 3885
2023-01-13T09:46:00.251Z, 3985
2023-01-13T09:48:00.081Z, 3976
2023-01-13T09:50:00.213Z, 3994
2023-01-13T09:52:00.322Z, 4090
2023-01-13T09:54:00.379Z, 4325
2023-01-13T09:56:00.289Z, 4345
2023-01-13T09:58:00.399Z, 4282
2023-01-13T10:00:00.160Z, 4117
2023-01-13T10:02:00.099Z, 4047
2023-01-13T10:04:00.117Z, 4042
2023-01-13T10:06:00.136Z, 4470
2023-01-13T10:08:00.123Z, 4490
2023-01-13T10:10:00.145Z, 4560
2023-01-13T10:12:00.092Z, 6270
2023-01-13T10:14:00.099Z, 5108
2023-01-13T10:16:02.809Z, 4940
2023-01-13T10:18:00.126Z, 6090
2023-01-13T10:20:00.110Z, 6824
2023-01-13T10:22:00.078Z, 5236
2023-01-13T10:24:00.112Z, 4641
2023-01-13T10:26:00.193Z, 5546
2023-01-13T10:28:00.123Z, 6566
2023-01-13T10:30:00.090Z, 7970
2023-01-13T10:32:00.089Z, 8515
2023-01-13T10:34:00.084Z, 6448
2023-01-13T10:36:00.099Z, 6213
2023-01-13T10:38:00.129Z, 5949
2023-01-13T10:40:00.104Z, 6735
2023-01-13T10:42:00.103Z, 5394
2023-01-13T10:44:00.080Z, 5830
2023-01-13T10:46:00.082Z, 4718
2023-01-13T10:48:00.090Z, 4628
2023-01-13T10:50:00.167Z, 5151
2023-01-13T10:52:00.166Z, 5417
2023-01-13T10:54:00.075Z, 4489
2023-01-13T10:56:00.102Z, 4583
2023-01-13T10:58:00.110Z, 4349
2023-01-13T11:00:00.082Z, 4225
2023-01-13T11:02:00.930Z, 4026
2023-01-13T11:04:00.102Z, 4030
2023-01-13T11:06:00.093Z, 4113
2023-01-13T11:08:00.093Z, 4065
2023-01-13T11:10:00.116Z, 4085
2023-01-13T11:12:00.087Z, 4131
2023-01-13T11:14:00.088Z, 4247
2023-01-13T11:16:00.163Z, 4416
2023-01-13T11:18:00.085Z, 4514
2023-01-13T11:20:00.133Z, 5666
2023-01-13T11:22:00.086Z, 7805
2023-01-13T11:24:00.073Z, 11656
2023-01-13T11:26:00.098Z, 9480
2023-01-13T11:28:00.114Z, 12685
2023-01-13T11:30:00.224Z, 12061
2023-01-13T11:32:00.101Z, 10889
2023-01-13T11:34:00.098Z, 9190
2023-01-13T11:36:00.076Z, 10156
2023-01-13T11:38:00.118Z, 11345
2023-01-13T11:40:00.364Z, 10125
2023-01-13T11:42:00.079Z, 8410
2023-01-13T11:44:00.082Z, 8929
2023-01-13T11:46:00.118Z, 8150
2023-01-13T11:48:00.127Z, 10387
2023-01-13T11:50:00.119Z, 10134
2023-01-13T11:52:00.130Z, 9405
2023-01-13T11:54:00.108Z, 8736
2023-01-13T11:56:00.067Z, 8507
2023-01-13T11:58:00.080Z, 8497
2023-01-13T12:00:00.120Z, 9623
2023-01-13T12:02:00.136Z, 13495
2023-01-13T12:04:00.108Z, 12850
2023-01-13T12:06:00.107Z, 9760
2023-01-13T12:08:00.087Z, 8460
2023-01-13T12:10:00.102Z, 8889
2023-01-13T12:12:00.110Z, 7466
2023-01-13T12:14:00.108Z, 8654
2023-01-13T12:16:00.115Z, 11805
2023-01-13T12:18:00.093Z, 14350
2023-01-13T12:20:00.118Z, 14312
2023-01-13T12:22:00.101Z, 11394
2023-01-13T12:24:00.076Z, 7405
2023-01-13T12:26:00.091Z, 7715
2023-01-13T12:28:00.105Z, 9940
2023-01-13T12:30:00.093Z, 10771
2023-01-13T12:32:00.175Z, 9868
2023-01-13T12:34:00.117Z, 7847
2023-01-13T12:36:00.164Z, 8105
2023-01-13T12:38:00.120Z, 7644
2023-01-13T12:40:00.126Z, 6293
2023-01-13T12:42:00.087Z, 4738
2023-01-13T12:44:00.077Z, 4130
2023-01-13T12:46:00.136Z, 6293
2023-01-13T12:48:00.075Z, 6880
2023-01-13T12:50:00.115Z, 5235
2023-01-13T12:52:00.107Z, 5330
2023-01-13T12:54:00.086Z, 3513
2023-01-13T12:56:00.093Z, 3670
2023-01-13T12:58:00.081Z, 3638
2023-01-13T13:00:00.153Z, 3935
2023-01-13T13:02:00.333Z, 3870
2023-01-13T13:04:00.106Z, 4547
2023-01-13T13:06:00.121Z, 4244
2023-01-13T13:08:00.097Z, 6954
2023-01-13T13:10:00.110Z, 7305
2023-01-13T13:12:00.144Z, 6415
2023-01-13T13:14:00.108Z, 11824
2023-01-13T13:16:00.083Z, 5706
2023-01-13T13:18:00.088Z, 4143
2023-01-13T13:20:00.160Z, 3907
2023-01-13T13:22:00.076Z, 3890
2023-01-13T13:24:00.098Z, 3880
2023-01-13T13:26:00.080Z, 3888
2023-01-13T13:28:00.094Z, 3852
2023-01-13T13:30:00.112Z, 3773
2023-01-13T13:32:00.100Z, 3782
2023-01-13T13:34:00.095Z, 3817
2023-01-13T13:36:00.092Z, 3855
2023-01-13T13:38:00.096Z, 3916
2023-01-13T13:40:00.101Z, 3943
2023-01-13T13:42:00.102Z, 3894
2023-01-13T13:44:00.081Z, 3943
2023-01-13T13:46:00.162Z, 4660
2023-01-13T13:48:00.106Z, 6219
2023-01-13T13:50:00.115Z, 5946
2023-01-13T13:52:00.144Z, 5297
2023-01-13T13:54:00.072Z, 4830
2023-01-13T13:56:00.096Z, 3672
2023-01-13T13:58:00.101Z, 3093
2023-01-13T14:00:00.092Z, 2690
2023-01-13T14:02:00.288Z, 4736
2023-01-13T14:04:00.104Z, 4525
2023-01-13T14:06:00.085Z, 4454
2023-01-13T14:08:00.062Z, 4982
2023-01-13T14:10:00.105Z, 5733
2023-01-13T14:12:00.041Z, 5309
2023-01-13T14:14:00.218Z, 4100
2023-01-13T14:16:00.162Z, 3471
2023-01-13T14:18:00.055Z, 3377
2023-01-13T14:20:00.082Z, 3409
2023-01-13T14:22:01.938Z, 3532
2023-01-13T14:24:00.053Z, 3797
2023-01-13T14:26:00.018Z, 4086
2023-01-13T14:28:00.035Z, 4714
2023-01-13T14:30:00.051Z, 4830
2023-01-13T14:32:00.039Z, 4160
2023-01-13T14:34:00.090Z, 4328
2023-01-13T14:36:00.069Z, 4465
2023-01-13T14:38:00.038Z, 4827
2023-01-13T14:40:00.102Z, 4716
2023-01-13T14:42:00.038Z, 4369
2023-01-13T14:44:00.057Z, 3953
2023-01-13T14:46:00.128Z, 3705
2023-01-13T14:48:00.020Z, 3151
2023-01-13T14:50:00.013Z, 2710
2023-01-13T14:51:59.990Z, 2376
2023-01-13T14:54:00.012Z, 2082
2023-01-13T14:56:00.422Z, 1954
2023-01-13T14:58:00.017Z, 1973
2023-01-13T15:00:00.007Z, 1982
2023-01-13T15:02:00.172Z, 1940
2023-01-13T15:04:00.136Z, 1973
2023-01-13T15:06:00.337Z, 1983
2023-01-13T15:08:00.126Z, 1635
2023-01-13T15:10:00.030Z, 1440
2023-01-13T15:12:00.028Z, 1479
2023-01-13T15:14:00.027Z, 1401
2023-01-13T15:16:00.076Z, 1277
2023-01-13T15:18:00.028Z, 1194
2023-01-13T15:20:00.050Z, 1052
2023-01-13T15:22:00.021Z, 1000
2023-01-13T15:24:00.019Z, 1004
2023-01-13T15:26:00.025Z, 1021
2023-01-13T15:28:00.032Z, 911
2023-01-13T15:29:59.997Z, 857
2023-01-13T15:32:00.032Z, 847
2023-01-13T15:34:00.022Z, 769
2023-01-13T15:36:00.032Z, 684
2023-01-13T15:38:00.028Z, 574
2023-01-13T15:40:00.050Z, 488
2023-01-13T15:42:00.018Z, 448
2023-01-13T15:44:00.044Z, 385
2023-01-13T15:46:00.028Z, 322
2023-01-13T15:48:00.011Z, 279
2023-01-13T15:50:00.010Z, 232
2023-01-13T15:52:00.008Z, 195
2023-01-13T15:54:00.030Z, 171
2023-01-13T15:56:00.023Z, 145
2023-01-13T15:58:00.011Z, 115
2023-01-13T16:00:00.008Z, 89
2023-01-13T16:02:00.019Z, 67
2023-01-13T16:04:00.026Z, 49
2023-01-13T16:06:00.006Z, 36
2023-01-13T16:07:59.997Z, 25
2023-01-13T16:10:00.036Z, 16
2023-01-13T16:12:00.013Z, 11
2023-01-13T16:14:00.017Z, 7
2023-01-13T16:16:00.143Z, 5
2023-01-13T16:18:00.020Z, 4
2023-01-13T16:20:00.064Z, 2
2023-01-13T16:22:00.038Z, 1
2023-01-13T16:24:00.037Z, 0
2023-01-13T16:26:00.037Z, 0
2023-01-13T16:28:00.043Z, 0
2023-01-13T16:30:00.051Z, 0
2023-01-13T16:32:00.057Z, 0
2023-01-13T16:34:00.061Z, 0
2023-01-13T16:36:10.598Z, 0
2023-01-13T16:38:00.060Z, 0
2023-01-13T16:40:00.061Z, 0
2023-01-13T16:42:00.057Z, 0
2023-01-13T16:44:00.077Z, 0
2023-01-13T16:46:00.071Z, 0
2023-01-13T16:48:00.077Z, 0
2023-01-13T16:50:00.213Z, 0
2023-01-13T16:52:00.102Z, 0
2023-01-13T16:54:00.111Z, 0
2023-01-13T16:56:00.061Z, 0
2023-01-13T16:58:00.335Z, 0
2023-01-13T17:00:00.246Z, 0
2023-01-13T17:02:00.140Z, 0
2023-01-13T17:04:00.440Z, 0
2023-01-13T17:06:00.091Z, 0
2023-01-13T17:08:00.094Z, 0
2023-01-13T17:10:00.189Z, 0
2023-01-13T17:12:00.089Z, 0
2023-01-13T17:14:00.091Z, 0
2023-01-13T17:16:00.061Z, 0
2023-01-13T17:18:00.099Z, 0
2023-01-13T17:20:00.228Z, 0
2023-01-13T17:22:00.119Z, 0
2023-01-13T17:24:00.099Z, 0
2023-01-13T17:26:00.076Z, 0
2023-01-13T17:28:00.131Z, 0
2023-01-13T17:30:00.195Z, 0
2023-01-13T17:32:00.189Z, 0
2023-01-13T17:34:00.108Z, 0
2023-01-13T17:36:00.099Z, 0
2023-01-13T17:38:00.137Z, 0
2023-01-13T17:40:00.118Z, 0
2023-01-13T17:42:00.076Z, 0
2023-01-13T17:44:00.115Z, 0
2023-01-13T17:46:00.119Z, 0
2023-01-13T17:48:00.102Z, 0
2023-01-13T17:50:00.114Z, 0
2023-01-13T17:52:00.342Z, 0
2023-01-13T17:54:00.382Z, 0
2023-01-13T17:56:00.131Z, 0
2023-01-13T17:58:00.104Z, 0
2023-01-13T18:00:00.115Z, 0
2023-01-13T18:02:00.361Z, 0
2023-01-13T18:04:00.096Z, 0
2023-01-13T18:06:00.085Z, 0
2023-01-13T18:08:00.086Z, 0
2023-01-13T18:10:00.094Z, 0
2023-01-13T18:12:00.115Z, 0
2023-01-13T18:14:00.085Z, 0
2023-01-13T18:16:00.087Z, 0
2023-01-13T18:18:00.084Z, 0
2023-01-13T18:20:00.097Z, 0
2023-01-13T18:22:00.086Z, 0
2023-01-13T18:24:00.093Z, 0
2023-01-13T18:26:00.068Z, 0
2023-01-13T18:28:00.076Z, 0
2023-01-13T18:30:00.132Z, 0
2023-01-13T18:32:00.085Z, 0
2023-01-13T18:34:00.094Z, 0
2023-01-13T18:36:00.095Z, 0
2023-01-13T18:38:00.100Z, 0
2023-01-13T18:40:00.094Z, 0
2023-01-13T18:42:00.088Z, 0
2023-01-13T18:44:00.095Z, 0
2023-01-13T18:46:00.181Z, 0
2023-01-13T18:48:00.108Z, 0
2023-01-13T18:50:00.088Z, 0
2023-01-13T18:52:00.244Z, 0
2023-01-13T18:54:00.078Z, 0
2023-01-13T18:56:00.087Z, 0
2023-01-13T18:58:00.112Z, 0
2023-01-13T19:00:00.100Z, 0
2023-01-13T19:02:00.232Z, 0
2023-01-13T19:04:00.111Z, 0
2023-01-13T19:06:00.090Z, 0
2023-01-13T19:08:00.087Z, 0
2023-01-13T19:10:00.109Z, 0
2023-01-13T19:12:00.117Z, 0
2023-01-13T19:14:00.081Z, 0
2023-01-13T19:16:00.153Z, 0
2023-01-13T19:18:00.096Z, 0
2023-01-13T19:20:00.098Z, 0
2023-01-13T19:22:00.092Z, 0
2023-01-13T19:24:00.094Z, 0
2023-01-13T19:26:00.098Z, 0
2023-01-13T19:28:00.093Z, 0
2023-01-13T19:30:00.110Z, 0
2023-01-13T19:32:00.060Z, 0
2023-01-13T19:34:00.120Z, 0
2023-01-13T19:36:00.093Z, 0
2023-01-13T19:38:00.140Z, 0
2023-01-13T19:40:00.086Z, 0
2023-01-13T19:42:00.095Z, 0
2023-01-13T19:44:00.119Z, 0
2023-01-13T19:46:00.148Z, 0
2023-01-13T19:48:00.087Z, 0
2023-01-13T19:50:00.110Z, 0
2023-01-13T19:52:00.084Z, 0
2023-01-13T19:54:00.096Z, 0
2023-01-13T19:56:00.077Z, 0
2023-01-13T19:58:00.104Z, 0
2023-01-13T20:00:00.125Z, 0
2023-01-13T20:02:00.154Z, 0
2023-01-13T20:04:00.071Z, 0
2023-01-13T20:06:00.106Z, 0
2023-01-13T20:08:00.076Z, 0
2023-01-13T20:10:00.075Z, 0
2023-01-13T20:12:00.086Z, 0
2023-01-13T20:14:00.085Z, 0
2023-01-13T20:16:00.149Z, 0
2023-01-13T20:18:00.094Z, 0
2023-01-13T20:20:00.115Z, 0
2023-01-13T20:22:00.094Z, 0
2023-01-13T20:24:00.095Z, 0
2023-01-13T20:26:00.092Z, 0
2023-01-13T20:28:00.093Z, 0
2023-01-13T20:30:00.098Z, 0
2023-01-13T20:32:00.071Z, 0
2023-01-13T20:34:00.117Z, 0
2023-01-13T20:36:00.208Z, 0
2023-01-13T20:38:00.096Z, 0
2023-01-13T20:40:00.111Z, 0
2023-01-13T20:42:00.089Z, 0
2023-01-13T20:44:00.123Z, 0
2023-01-13T20:46:00.120Z, 0
2023-01-13T20:48:00.088Z, 0
2023-01-13T20:50:00.075Z, 0
2023-01-13T20:52:00.097Z, 0
2023-01-13T20:54:00.086Z, 0
2023-01-13T20:56:00.087Z, 0
2023-01-13T20:58:00.069Z, 0
2023-01-13T21:00:00.099Z, 0
2023-01-13T21:02:00.101Z, 0
2023-01-13T21:04:00.254Z, 0
2023-01-13T21:06:00.114Z, 0
2023-01-13T21:08:00.100Z, 0
2023-01-13T21:10:00.117Z, 0
2023-01-13T21:12:00.091Z, 0
2023-01-13T21:14:00.094Z, 0
2023-01-13T21:16:00.187Z, 0
2023-01-13T21:18:00.108Z, 0
2023-01-13T21:20:00.083Z, 0
2023-01-13T21:22:00.104Z, 0
2023-01-13T21:24:00.090Z, 0
2023-01-13T21:26:00.098Z, 0
2023-01-13T21:28:00.098Z, 0
2023-01-13T21:30:00.088Z, 0
2023-01-13T21:32:00.162Z, 0
2023-01-13T21:34:00.099Z, 0
2023-01-13T21:36:00.133Z, 0
2023-01-13T21:38:00.103Z, 0
2023-01-13T21:40:00.123Z, 0
2023-01-13T21:42:00.122Z, 0
2023-01-13T21:44:00.121Z, 0
2023-01-13T21:46:00.210Z, 0
2023-01-13T21:48:00.102Z, 0
2023-01-13T21:50:00.103Z, 0
2023-01-13T21:52:00.135Z, 0
2023-01-13T21:54:00.129Z, 0
2023-01-13T21:56:00.102Z, 0
2023-01-13T21:58:00.098Z, 0
2023-01-13T22:00:00.113Z, 0
2023-01-13T22:02:22.872Z, 0
2023-01-13T22:04:00.092Z, 0
2023-01-13T22:06:00.153Z, 0
2023-01-13T22:08:00.094Z, 0
2023-01-13T22:10:00.135Z, 0
2023-01-13T22:12:00.073Z, 0
2023-01-13T22:14:00.099Z, 0
2023-01-13T22:16:00.094Z, 0
2023-01-13T22:18:00.114Z, 0
2023-01-13T22:20:00.140Z, 0
2023-01-13T22:22:00.201Z, 0
2023-01-13T22:24:00.066Z, 0
2023-01-13T22:26:00.087Z, 0
2023-01-13T22:28:00.125Z, 0
2023-01-13T22:30:00.126Z, 0
2023-01-13T22:32:00.244Z, 0
2023-01-13T22:34:00.132Z, 0
2023-01-13T22:36:00.119Z, 0
2023-01-13T22:38:00.120Z, 0
2023-01-13T22:40:00.091Z, 0
2023-01-13T22:42:00.070Z, 0
2023-01-13T22:44:00.100Z, 0
2023-01-13T22:46:00.178Z, 0
2023-01-13T22:48:00.097Z, 0
2023-01-13T22:50:00.114Z, 0
2023-01-13T22:52:00.115Z, 0
2023-01-13T22:54:00.106Z, 0
2023-01-13T22:56:00.120Z, 0
2023-01-13T22:58:00.091Z, 0
2023-01-13T23:00:00.138Z, 0
2023-01-13T23:02:00.100Z, 0
2023-01-13T23:04:00.336Z, 0
2023-01-13T23:06:00.079Z, 0
2023-01-13T23:08:00.059Z, 0
2023-01-13T23:10:00.079Z, 0
2023-01-13T23:12:00.095Z, 0
2023-01-13T23:14:00.138Z, 0
2023-01-13T23:16:00.131Z, 0
2023-01-13T23:18:00.088Z, 0
2023-01-13T23:20:00.246Z, 0
2023-01-13T23:22:00.152Z, 0
2023-01-13T23:24:00.105Z, 0
2023-01-13T23:26:00.076Z, 0
2023-01-13T23:28:00.113Z, 0
2023-01-13T23:30:00.097Z, 0
2023-01-13T23:32:00.101Z, 0
2023-01-13T23:34:00.122Z, 0
2023-01-13T23:36:00.106Z, 0
2023-01-13T23:38:00.127Z, 0
2023-01-13T23:40:00.117Z, 0
2023-01-13T23:42:00.099Z, 0
2023-01-13T23:44:00.122Z, 0
2023-01-13T23:46:00.147Z, 0
2023-01-13T23:48:00.109Z, 0
2023-01-13T23:50:00.126Z, 0
2023-01-13T23:52:00.087Z, 0
2023-01-13T23:54:00.107Z, 0
2023-01-13T23:56:00.063Z, 0
2023-01-13T23:58:00.094Z, 0
